sensor_id;sensor_type;location;lat;lon;timestamp;pressure;altitude;pressure_sealevel;temperature;humidity
80410;BME280;69746;45.596;10.154;2023-07-09T00:00:50;99989.56;;;27.20;44.48
80410;BME280;69746;45.596;10.154;2023-07-09T00:03:18;99997.97;;;27.20;44.44
80410;BME280;69746;45.596;10.154;2023-07-09T00:05:47;99987.59;;;27.20;44.28
80410;BME280;69746;45.596;10.154;2023-07-09T00:08:26;99988.41;;;27.21;44.62
80410;BME280;69746;45.596;10.154;2023-07-09T00:10:56;99991.56;;;27.19;44.56
80410;BME280;69746;45.596;10.154;2023-07-09T00:13:26;99998.78;;;27.20;44.46
80410;BME280;69746;45.596;10.154;2023-07-09T00:15:58;99987.59;;;27.20;44.52
80410;BME280;69746;45.596;10.154;2023-07-09T00:18:25;99989.56;;;27.20;44.50
80410;BME280;69746;45.596;10.154;2023-07-09T00:20:51;99989.91;;;27.18;44.63
80410;BME280;69746;45.596;10.154;2023-07-09T00:23:20;99990.75;;;27.19;44.61
80410;BME280;69746;45.596;10.154;2023-07-09T00:25:46;99977.91;;;27.18;44.50
80410;BME280;69746;45.596;10.154;2023-07-09T00:28:15;99982.00;;;27.20;44.42
80410;BME280;69746;45.596;10.154;2023-07-09T00:30:45;99977.56;;;27.19;44.76
80410;BME280;69746;45.596;10.154;2023-07-09T00:33:16;99979.19;;;27.20;44.37
80410;BME280;69746;45.596;10.154;2023-07-09T00:35:45;99974.75;;;27.19;44.56
80410;BME280;69746;45.596;10.154;2023-07-09T00:38:19;99977.56;;;27.19;44.34
80410;BME280;69746;45.596;10.154;2023-07-09T00:41:02;99968.00;;;27.20;44.32
80410;BME280;69746;45.596;10.154;2023-07-09T00:43:36;99965.19;;;27.20;44.49
80410;BME280;69746;45.596;10.154;2023-07-09T00:49:07;99958.78;;;27.20;44.64
80410;BME280;69746;45.596;10.154;2023-07-09T00:51:40;99965.53;;;27.19;44.37
80410;BME280;69746;45.596;10.154;2023-07-09T00:56:43;99959.94;;;27.19;44.84
80410;BME280;69746;45.596;10.154;2023-07-09T00:59:20;99951.06;;;27.17;44.61
80410;BME280;69746;45.596;10.154;2023-07-09T01:01:49;99954.34;;;27.19;44.50
80410;BME280;69746;45.596;10.154;2023-07-09T01:04:16;99965.53;;;27.19;44.41
80410;BME280;69746;45.596;10.154;2023-07-09T01:06:52;99955.84;;;27.16;44.49
80410;BME280;69746;45.596;10.154;2023-07-09T01:09:21;99961.91;;;27.18;44.62
80410;BME280;69746;45.596;10.154;2023-07-09T01:11:47;99966.69;;;27.18;44.41
80410;BME280;69746;45.596;10.154;2023-07-09T01:14:15;99955.84;;;27.16;44.43
80410;BME280;69746;45.596;10.154;2023-07-09T01:16:49;99958.28;;;27.18;44.45
80410;BME280;69746;45.596;10.154;2023-07-09T01:19:24;99959.94;;;27.19;44.53
80410;BME280;69746;45.596;10.154;2023-07-09T01:21:57;99977.56;;;27.19;44.92
80410;BME280;69746;45.596;10.154;2023-07-09T01:27:16;99961.91;;;27.18;44.76
80410;BME280;69746;45.596;10.154;2023-07-09T01:29:45;99965.53;;;27.19;44.71
80410;BME280;69746;45.596;10.154;2023-07-09T01:32:17;99968.34;;;27.19;44.94
80410;BME280;69746;45.596;10.154;2023-07-09T01:34:48;99964.72;;;27.18;44.82
80410;BME280;69746;45.596;10.154;2023-07-09T01:37:16;99961.91;;;27.18;44.68
80410;BME280;69746;45.596;10.154;2023-07-09T01:39:43;99976.75;;;27.19;44.82
80410;BME280;69746;45.596;10.154;2023-07-09T01:42:09;99955.97;;;27.20;44.64
80410;BME280;69746;45.596;10.154;2023-07-09T01:44:36;99962.59;;;27.15;44.56
80410;BME280;69746;45.596;10.154;2023-07-09T01:47:05;99970.31;;;27.18;44.58
80410;BME280;69746;45.596;10.154;2023-07-09T01:49:33;99966.34;;;27.19;44.56
80410;BME280;69746;45.596;10.154;2023-07-09T01:52:01;99966.34;;;27.19;44.39
80410;BME280;69746;45.596;10.154;2023-07-09T01:54:31;99967.16;;;27.20;44.70
80410;BME280;69746;45.596;10.154;2023-07-09T01:59:39;99970.31;;;27.18;44.67
80410;BME280;69746;45.596;10.154;2023-07-09T02:02:09;99971.13;;;27.19;44.71
80410;BME280;69746;45.596;10.154;2023-07-09T02:04:35;99979.53;;;27.19;44.63
80410;BME280;69746;45.596;10.154;2023-07-09T02:07:01;99982.00;;;27.20;44.60
80410;BME280;69746;45.596;10.154;2023-07-09T02:09:27;99981.53;;;27.18;44.80
80410;BME280;69746;45.596;10.154;2023-07-09T02:11:53;99979.53;;;27.19;44.77
80410;BME280;69746;45.596;10.154;2023-07-09T02:14:18;99983.16;;;27.19;44.88
80410;BME280;69746;45.596;10.154;2023-07-09T02:16:44;99988.75;;;27.19;44.89
80410;BME280;69746;45.596;10.154;2023-07-09T02:19:10;99987.13;;;27.18;44.97
80410;BME280;69746;45.596;10.154;2023-07-09T02:21:36;99984.31;;;27.18;44.89
80410;BME280;69746;45.596;10.154;2023-07-09T02:24:02;99982.34;;;27.19;44.39
80410;BME280;69746;45.596;10.154;2023-07-09T02:26:28;99988.75;;;27.19;44.51
80410;BME280;69746;45.596;10.154;2023-07-09T02:28:53;99998.78;;;27.20;44.60
80410;BME280;69746;45.596;10.154;2023-07-09T02:31:19;99994.72;;;27.18;44.49
80410;BME280;69746;45.596;10.154;2023-07-09T02:33:45;99996.34;;;27.19;44.71
80410;BME280;69746;45.596;10.154;2023-07-09T02:36:11;99994.34;;;27.19;44.66
80410;BME280;69746;45.596;10.154;2023-07-09T02:38:37;99999.16;;;27.19;44.71
80410;BME280;69746;45.596;10.154;2023-07-09T02:41:03;100001.13;;;27.18;44.89
80410;BME280;69746;45.596;10.154;2023-07-09T02:43:29;99999.97;;;27.19;44.90
80410;BME280;69746;45.596;10.154;2023-07-09T02:45:54;100006.38;;;27.20;44.73
80410;BME280;69746;45.596;10.154;2023-07-09T02:48:20;100011.50;;;27.18;44.62
80410;BME280;69746;45.596;10.154;2023-07-09T02:50:46;100011.16;;;27.19;44.54
80410;BME280;69746;45.596;10.154;2023-07-09T02:53:12;100018.75;;;27.19;44.50
80410;BME280;69746;45.596;10.154;2023-07-09T02:55:38;100022.38;;;27.19;44.96
80410;BME280;69746;45.596;10.154;2023-07-09T02:58:06;100029.59;;;27.20;44.93
80410;BME280;69746;45.596;10.154;2023-07-09T03:00:32;100020.72;;;27.18;44.84
80410;BME280;69746;45.596;10.154;2023-07-09T03:02:58;100019.56;;;27.19;44.91
80410;BME280;69746;45.596;10.154;2023-07-09T03:05:24;100018.75;;;27.19;44.65
80410;BME280;69746;45.596;10.154;2023-07-09T03:07:49;100014.78;;;27.20;44.75
80410;BME280;69746;45.596;10.154;2023-07-09T03:10:16;100024.34;;;27.19;44.82
80410;BME280;69746;45.596;10.154;2023-07-09T03:12:41;100022.72;;;27.18;44.51
80410;BME280;69746;45.596;10.154;2023-07-09T03:15:07;100017.44;;;27.16;44.91
80410;BME280;69746;45.596;10.154;2023-07-09T03:17:33;100018.75;;;27.19;45.07
80410;BME280;69746;45.596;10.154;2023-07-09T03:19:59;100013.16;;;27.19;44.80
80410;BME280;69746;45.596;10.154;2023-07-09T03:22:25;100015.94;;;27.19;44.92
80410;BME280;69746;45.596;10.154;2023-07-09T03:24:50;100019.56;;;27.19;44.89
80410;BME280;69746;45.596;10.154;2023-07-09T03:27:16;100011.38;;;27.14;44.67
80410;BME280;69746;45.596;10.154;2023-07-09T03:29:42;100016.75;;;27.19;45.14
80410;BME280;69746;45.596;10.154;2023-07-09T03:32:11;100020.38;;;27.20;44.71
80410;BME280;69746;45.596;10.154;2023-07-09T03:34:36;100015.94;;;27.19;44.93
80410;BME280;69746;45.596;10.154;2023-07-09T03:37:02;100015.13;;;27.18;44.72
80410;BME280;69746;45.596;10.154;2023-07-09T03:39:28;100018.75;;;27.19;44.79
80410;BME280;69746;45.596;10.154;2023-07-09T03:41:56;100023.53;;;27.18;45.01
80410;BME280;69746;45.596;10.154;2023-07-09T03:44:22;100015.94;;;27.19;44.85
80410;BME280;69746;45.596;10.154;2023-07-09T03:46:48;100021.53;;;27.19;44.93
80410;BME280;69746;45.596;10.154;2023-07-09T03:49:14;100014.31;;;27.18;44.94
80410;BME280;69746;45.596;10.154;2023-07-09T03:51:40;100009.53;;;27.18;44.97
80410;BME280;69746;45.596;10.154;2023-07-09T03:54:06;100020.72;;;27.18;44.84
80410;BME280;69746;45.596;10.154;2023-07-09T03:56:32;100022.72;;;27.18;45.06
80410;BME280;69746;45.596;10.154;2023-07-09T03:58:58;100018.75;;;27.19;45.11
80410;BME280;69746;45.596;10.154;2023-07-09T04:01:24;100020.72;;;27.18;45.01
80410;BME280;69746;45.596;10.154;2023-07-09T04:03:50;100030.78;;;27.19;44.77
80410;BME280;69746;45.596;10.154;2023-07-09T04:06:16;100023.53;;;27.18;45.15
80410;BME280;69746;45.596;10.154;2023-07-09T04:08:42;100019.09;;;27.17;44.90
80410;BME280;69746;45.596;10.154;2023-07-09T04:11:10;100019.09;;;27.17;44.81
80410;BME280;69746;45.596;10.154;2023-07-09T04:13:36;100029.94;;;27.19;45.01
80410;BME280;69746;45.596;10.154;2023-07-09T04:16:01;100015.13;;;27.18;44.88
80410;BME280;69746;45.596;10.154;2023-07-09T04:18:27;100022.72;;;27.18;44.85
80410;BME280;69746;45.596;10.154;2023-07-09T04:20:56;100026.34;;;27.18;45.03
80410;BME280;69746;45.596;10.154;2023-07-09T04:23:22;100017.94;;;27.18;44.98
80410;BME280;69746;45.596;10.154;2023-07-09T04:25:47;100024.34;;;27.19;44.77
80410;BME280;69746;45.596;10.154;2023-07-09T04:28:14;100019.44;;;27.16;44.87
80410;BME280;69746;45.596;10.154;2023-07-09T04:30:50;100025.16;;;27.19;44.76
80410;BME280;69746;45.596;10.154;2023-07-09T04:33:18;100023.53;;;27.18;45.18
80410;BME280;69746;45.596;10.154;2023-07-09T04:35:48;100022.72;;;27.18;45.07
80410;BME280;69746;45.596;10.154;2023-07-09T04:38:15;100026.34;;;27.18;45.06
80410;BME280;69746;45.596;10.154;2023-07-09T04:40:41;100031.13;;;27.18;45.23
80410;BME280;69746;45.596;10.154;2023-07-09T04:43:07;100029.13;;;27.18;44.91
80410;BME280;69746;45.596;10.154;2023-07-09T04:45:33;100037.53;;;27.18;44.97
80410;BME280;69746;45.596;10.154;2023-07-09T04:47:59;100033.56;;;27.19;45.05
80410;BME280;69746;45.596;10.154;2023-07-09T04:50:24;100030.28;;;27.17;45.03
80410;BME280;69746;45.596;10.154;2023-07-09T04:52:50;100031.94;;;27.18;45.02
80410;BME280;69746;45.596;10.154;2023-07-09T04:55:18;100022.72;;;27.18;45.15
80410;BME280;69746;45.596;10.154;2023-07-09T04:57:45;100032.28;;;27.17;45.24
80410;BME280;69746;45.596;10.154;2023-07-09T05:00:14;100023.53;;;27.18;45.04
80410;BME280;69746;45.596;10.154;2023-07-09T05:02:40;100029.94;;;27.19;45.11
80410;BME280;69746;45.596;10.154;2023-07-09T05:05:06;100034.72;;;27.18;45.12
80410;BME280;69746;45.596;10.154;2023-07-09T05:07:32;100044.78;;;27.19;45.03
80410;BME280;69746;45.596;10.154;2023-07-09T05:09:58;100041.03;;;27.15;45.20
80410;BME280;69746;45.596;10.154;2023-07-09T05:12:27;100036.72;;;27.18;45.21
80410;BME280;69746;45.596;10.154;2023-07-09T05:14:54;100040.34;;;27.18;45.09
80410;BME280;69746;45.596;10.154;2023-07-09T05:17:22;100033.44;;;27.16;45.09
80410;BME280;69746;45.596;10.154;2023-07-09T05:19:50;100031.94;;;27.18;45.09
80410;BME280;69746;45.596;10.154;2023-07-09T05:22:16;100028.66;;;27.16;45.21
80410;BME280;69746;45.596;10.154;2023-07-09T05:24:41;100040.34;;;27.18;45.38
80410;BME280;69746;45.596;10.154;2023-07-09T05:27:07;100033.09;;;27.17;45.07
80410;BME280;69746;45.596;10.154;2023-07-09T05:29:34;100028.31;;;27.18;45.49
80410;BME280;69746;45.596;10.154;2023-07-09T05:32:00;100036.38;;;27.19;45.14
80410;BME280;69746;45.596;10.154;2023-07-09T05:34:26;100031.94;;;27.18;45.00
80410;BME280;69746;45.596;10.154;2023-07-09T05:36:52;100033.56;;;27.19;44.88
80410;BME280;69746;45.596;10.154;2023-07-09T05:39:20;100028.31;;;27.18;45.00
80410;BME280;69746;45.596;10.154;2023-07-09T05:41:46;100025.50;;;27.18;45.20
80410;BME280;69746;45.596;10.154;2023-07-09T05:44:12;100028.31;;;27.18;45.33
80410;BME280;69746;45.596;10.154;2023-07-09T05:46:37;100030.78;;;27.19;45.14
80410;BME280;69746;45.596;10.154;2023-07-09T05:49:05;100026.00;;;27.20;45.27
80410;BME280;69746;45.596;10.154;2023-07-09T05:51:31;100033.91;;;27.18;45.40
80410;BME280;69746;45.596;10.154;2023-07-09T05:53:57;100026.34;;;27.18;45.19
80410;BME280;69746;45.596;10.154;2023-07-09T05:56:22;100031.94;;;27.18;45.27
80410;BME280;69746;45.596;10.154;2023-07-09T05:58:48;100030.78;;;27.19;45.23
80410;BME280;69746;45.596;10.154;2023-07-09T06:01:14;100033.09;;;27.17;45.26
80410;BME280;69746;45.596;10.154;2023-07-09T06:03:40;100035.56;;;27.19;45.06
80410;BME280;69746;45.596;10.154;2023-07-09T06:06:06;100034.38;;;27.20;45.25
80410;BME280;69746;45.596;10.154;2023-07-09T06:08:32;100036.03;;;27.21;45.26
80410;BME280;69746;45.596;10.154;2023-07-09T06:11:00;100034.38;;;27.20;45.11
80410;BME280;69746;45.596;10.154;2023-07-09T06:13:29;100034.38;;;27.20;45.26
80410;BME280;69746;45.596;10.154;2023-07-09T06:15:57;100042.78;;;27.20;45.28
80410;BME280;69746;45.596;10.154;2023-07-09T06:18:24;100050.38;;;27.19;45.24
80410;BME280;69746;45.596;10.154;2023-07-09T06:20:52;100044.44;;;27.21;45.16
80410;BME280;69746;45.596;10.154;2023-07-09T06:23:19;100038.00;;;27.20;45.36
80410;BME280;69746;45.596;10.154;2023-07-09T06:25:45;100041.97;;;27.19;45.16
80410;BME280;69746;45.596;10.154;2023-07-09T06:28:14;100044.44;;;27.21;45.29
80410;BME280;69746;45.596;10.154;2023-07-09T06:30:41;100045.13;;;27.18;45.20
80410;BME280;69746;45.596;10.154;2023-07-09T06:33:06;100041.50;;;27.17;45.37
80410;BME280;69746;45.596;10.154;2023-07-09T06:35:32;100048.06;;;27.21;45.23
80410;BME280;69746;45.596;10.154;2023-07-09T06:37:58;100047.22;;;27.21;45.43
80410;BME280;69746;45.596;10.154;2023-07-09T06:40:24;100050.84;;;27.21;45.30
80410;BME280;69746;45.596;10.154;2023-07-09T06:42:50;100053.66;;;27.21;45.42
80410;BME280;69746;45.596;10.154;2023-07-09T06:45:16;100055.63;;;27.21;45.34
80410;BME280;69746;45.596;10.154;2023-07-09T06:47:42;100050.84;;;27.21;45.40
80410;BME280;69746;45.596;10.154;2023-07-09T06:50:08;100058.44;;;27.21;45.21
80410;BME280;69746;45.596;10.154;2023-07-09T06:52:34;100045.25;;;27.21;45.52
80410;BME280;69746;45.596;10.154;2023-07-09T06:54:59;100053.34;;;27.23;45.32
80410;BME280;69746;45.596;10.154;2023-07-09T06:57:28;100048.91;;;27.22;45.26
80410;BME280;69746;45.596;10.154;2023-07-09T06:59:54;100064.53;;;27.23;45.49
80410;BME280;69746;45.596;10.154;2023-07-09T07:02:20;100056.97;;;27.23;45.43
80410;BME280;69746;45.596;10.154;2023-07-09T07:04:46;100051.38;;;27.23;45.40
80410;BME280;69746;45.596;10.154;2023-07-09T07:07:12;100054.97;;;27.24;45.38
80410;BME280;69746;45.596;10.154;2023-07-09T07:09:38;100050.53;;;27.23;45.37
80410;BME280;69746;45.596;10.154;2023-07-09T07:12:04;100045.75;;;27.23;45.46
80410;BME280;69746;45.596;10.154;2023-07-09T07:14:30;100044.59;;;27.24;45.61
80410;BME280;69746;45.596;10.154;2023-07-09T07:16:56;100039.81;;;27.25;45.37
80410;BME280;69746;45.596;10.154;2023-07-09T07:19:24;100044.59;;;27.24;45.65
80410;BME280;69746;45.596;10.154;2023-07-09T07:21:50;100051.00;;;27.25;45.46
80410;BME280;69746;45.596;10.154;2023-07-09T07:24:15;100043.78;;;27.24;45.42
80410;BME280;69746;45.596;10.154;2023-07-09T07:26:41;100039.81;;;27.25;45.61
80410;BME280;69746;45.596;10.154;2023-07-09T07:29:07;100039.00;;;27.24;45.82
80410;BME280;69746;45.596;10.154;2023-07-09T07:31:32;100035.03;;;27.25;45.45
80410;BME280;69746;45.596;10.154;2023-07-09T07:33:59;100038.66;;;27.26;45.79
80410;BME280;69746;45.596;10.154;2023-07-09T07:36:25;100032.22;;;27.25;45.81
80410;BME280;69746;45.596;10.154;2023-07-09T07:38:51;100037.84;;;27.25;45.84
80410;BME280;69746;45.596;10.154;2023-07-09T07:41:16;100028.25;;;27.26;45.77
80410;BME280;69746;45.596;10.154;2023-07-09T07:43:42;100031.88;;;27.27;45.74
80410;BME280;69746;45.596;10.154;2023-07-09T07:46:08;100031.06;;;27.26;45.50
80410;BME280;69746;45.596;10.154;2023-07-09T07:48:36;100027.09;;;27.27;45.52
80410;BME280;69746;45.596;10.154;2023-07-09T07:51:03;100024.31;;;27.27;45.40
80410;BME280;69746;45.596;10.154;2023-07-09T07:53:32;100031.88;;;27.27;45.69
80410;BME280;69746;45.596;10.154;2023-07-09T07:55:58;100030.72;;;27.28;45.73
80410;BME280;69746;45.596;10.154;2023-07-09T07:58:27;100027.09;;;27.27;45.60
80410;BME280;69746;45.596;10.154;2023-07-09T08:00:57;100023.13;;;27.28;45.81
80410;BME280;69746;45.596;10.154;2023-07-09T08:03:26;100027.91;;;27.28;45.54
80410;BME280;69746;45.596;10.154;2023-07-09T08:05:52;100021.50;;;27.27;45.70
80410;BME280;69746;45.596;10.154;2023-07-09T08:08:18;100019.50;;;27.28;45.70
80410;BME280;69746;45.596;10.154;2023-07-09T08:10:44;100026.75;;;27.29;45.71
80410;BME280;69746;45.596;10.154;2023-07-09T08:13:10;100015.56;;;27.29;45.59
80410;BME280;69746;45.596;10.154;2023-07-09T08:15:38;100013.44;;;27.26;45.66
80410;BME280;69746;45.596;10.154;2023-07-09T08:18:04;100009.94;;;27.29;45.66
80410;BME280;69746;45.596;10.154;2023-07-09T08:20:29;100009.81;;;27.25;45.66
80410;BME280;69746;45.596;10.154;2023-07-09T08:22:58;100017.19;;;27.30;45.72
80410;BME280;69746;45.596;10.154;2023-07-09T08:25:24;100010.78;;;27.29;45.50
80410;BME280;69746;45.596;10.154;2023-07-09T08:27:50;100008.78;;;27.30;45.61
80410;BME280;69746;45.596;10.154;2023-07-09T08:30:16;100019.16;;;27.29;45.76
80410;BME280;69746;45.596;10.154;2023-07-09T08:32:42;100013.22;;;27.31;45.58
80410;BME280;69746;45.596;10.154;2023-07-09T08:35:08;100005.97;;;27.30;45.70
80410;BME280;69746;45.596;10.154;2023-07-09T08:37:36;100024.44;;;27.31;45.72
80410;BME280;69746;45.596;10.154;2023-07-09T08:40:04;100019.66;;;27.31;45.69
80410;BME280;69746;45.596;10.154;2023-07-09T08:42:36;100025.25;;;27.31;45.78
80410;BME280;69746;45.596;10.154;2023-07-09T08:45:20;100019.66;;;27.31;45.59
80410;BME280;69746;45.596;10.154;2023-07-09T08:50:50;100017.66;;;27.32;45.77
80410;BME280;69746;45.596;10.154;2023-07-09T08:53:28;100014.03;;;27.31;45.84
80410;BME280;69746;45.596;10.154;2023-07-09T08:55:57;100012.06;;;27.32;45.58
80410;BME280;69746;45.596;10.154;2023-07-09T08:58:28;100017.31;;;27.33;45.64
80410;BME280;69746;45.596;10.154;2023-07-09T09:00:59;100015.69;;;27.32;45.64
80410;BME280;69746;45.596;10.154;2023-07-09T09:03:39;100012.88;;;27.32;45.79
80410;BME280;69746;45.596;10.154;2023-07-09T09:06:11;100012.88;;;27.32;45.44
80410;BME280;69746;45.596;10.154;2023-07-09T09:09:02;100010.06;;;27.32;45.71
80410;BME280;69746;45.596;10.154;2023-07-09T09:16:45;100012.06;;;27.32;45.90
80410;BME280;69746;45.596;10.154;2023-07-09T09:19:21;100018.13;;;27.34;45.78
80410;BME280;69746;45.596;10.154;2023-07-09T09:21:52;100014.50;;;27.33;45.86
80410;BME280;69746;45.596;10.154;2023-07-09T09:24:30;100021.78;;;27.35;45.81
80410;BME280;69746;45.596;10.154;2023-07-09T09:26:58;100022.59;;;27.35;45.71
80410;BME280;69746;45.596;10.154;2023-07-09T09:29:26;100019.00;;;27.35;45.81
80410;BME280;69746;45.596;10.154;2023-07-09T09:31:55;100023.75;;;27.34;45.91
80410;BME280;69746;45.596;10.154;2023-07-09T09:34:25;100022.59;;;27.35;45.56
80410;BME280;69746;45.596;10.154;2023-07-09T09:36:53;100030.19;;;27.35;45.74
80410;BME280;69746;45.596;10.154;2023-07-09T09:39:22;100027.03;;;27.36;45.64
80410;BME280;69746;45.596;10.154;2023-07-09T09:41:55;100018.66;;;27.36;45.67
80410;BME280;69746;45.596;10.154;2023-07-09T09:44:27;100021.44;;;27.36;45.83
80410;BME280;69746;45.596;10.154;2023-07-09T09:46:56;100023.91;;;27.38;45.84
80410;BME280;69746;45.596;10.154;2023-07-09T09:49:23;100017.47;;;27.37;45.48
80410;BME280;69746;45.596;10.154;2023-07-09T09:51:52;100017.47;;;27.37;45.69
80410;BME280;69746;45.596;10.154;2023-07-09T09:54:27;100022.75;;;27.39;45.79
80410;BME280;69746;45.596;10.154;2023-07-09T09:56:56;100024.72;;;27.38;45.94
80410;BME280;69746;45.596;10.154;2023-07-09T09:59:31;100020.75;;;27.39;45.94
80410;BME280;69746;45.596;10.154;2023-07-09T10:02:01;100017.94;;;27.39;46.05
80410;BME280;69746;45.596;10.154;2023-07-09T10:04:28;100029.16;;;27.39;45.78
80410;BME280;69746;45.596;10.154;2023-07-09T10:06:57;100017.94;;;27.39;45.82
80410;BME280;69746;45.596;10.154;2023-07-09T10:09:47;100028.00;;;27.40;45.96
80410;BME280;69746;45.596;10.154;2023-07-09T10:17:48;100017.59;;;27.41;46.10
80410;BME280;69746;45.596;10.154;2023-07-09T10:20:40;100012.81;;;27.41;46.00
80410;BME280;69746;45.596;10.154;2023-07-09T10:25:52;100011.19;;;27.40;45.90
80410;BME280;69746;45.596;10.154;2023-07-09T10:28:31;100020.41;;;27.41;45.97
80410;BME280;69746;45.596;10.154;2023-07-09T10:36:35;100020.41;;;27.41;46.23
80410;BME280;69746;45.596;10.154;2023-07-09T10:39:14;100017.59;;;27.41;46.36
80410;BME280;69746;45.596;10.154;2023-07-09T10:41:43;100014.81;;;27.41;46.36
80410;BME280;69746;45.596;10.154;2023-07-09T10:44:16;100013.63;;;27.42;45.96
80410;BME280;69746;45.596;10.154;2023-07-09T10:46:48;100022.03;;;27.42;46.00
80410;BME280;69746;45.596;10.154;2023-07-09T10:49:17;100010.50;;;27.43;46.09
80410;BME280;69746;45.596;10.154;2023-07-09T10:52:00;100012.81;;;27.41;46.21
80410;BME280;69746;45.596;10.154;2023-07-09T10:54:31;100020.88;;;27.43;46.27
80410;BME280;69746;45.596;10.154;2023-07-09T10:57:10;100008.50;;;27.44;46.24
80410;BME280;69746;45.596;10.154;2023-07-09T10:59:40;100007.69;;;27.43;46.39
80410;BME280;69746;45.596;10.154;2023-07-09T11:02:26;100012.13;;;27.44;46.42
80410;BME280;69746;45.596;10.154;2023-07-09T11:04:56;100010.16;;;27.45;46.27
80410;BME280;69746;45.596;10.154;2023-07-09T11:07:29;100002.78;;;27.40;46.19
80410;BME280;69746;45.596;10.154;2023-07-09T11:09:59;100012.94;;;27.45;46.44
80410;BME280;69746;45.596;10.154;2023-07-09T11:12:38;100006.19;;;27.46;46.40
80410;BME280;69746;45.596;10.154;2023-07-09T11:15:20;100007.00;;;27.46;46.28
80410;BME280;69746;45.596;10.154;2023-07-09T11:17:47;100004.19;;;27.46;46.49
80410;BME280;69746;45.596;10.154;2023-07-09T11:20:25;100012.28;;;27.48;46.27
80410;BME280;69746;45.596;10.154;2023-07-09T11:22:59;99997.44;;;27.47;46.40
80410;BME280;69746;45.596;10.154;2023-07-09T11:25:30;100001.41;;;27.46;46.42
80410;BME280;69746;45.596;10.154;2023-07-09T11:28:05;100004.19;;;27.46;46.34
80410;BME280;69746;45.596;10.154;2023-07-09T11:30:32;99984.59;;;27.46;46.57
80410;BME280;69746;45.596;10.154;2023-07-09T11:33:01;99997.44;;;27.47;46.35
80410;BME280;69746;45.596;10.154;2023-07-09T11:35:50;99988.72;;;27.49;46.56
80410;BME280;69746;45.596;10.154;2023-07-09T11:38:18;99996.63;;;27.47;46.63
80410;BME280;69746;45.596;10.154;2023-07-09T11:40:48;99995.47;;;27.48;46.59
80410;BME280;69746;45.596;10.154;2023-07-09T11:43:34;99990.34;;;27.50;46.69
80410;BME280;69746;45.596;10.154;2023-07-09T11:46:10;99998.75;;;27.50;46.63
80410;BME280;69746;45.596;10.154;2023-07-09T11:48:39;99996.28;;;27.48;46.82
80410;BME280;69746;45.596;10.154;2023-07-09T11:51:13;99993.16;;;27.50;46.73
80410;BME280;69746;45.596;10.154;2023-07-09T11:53:53;99987.53;;;27.50;46.79
80410;BME280;69746;45.596;10.154;2023-07-09T11:56:21;99981.94;;;27.50;46.85
80410;BME280;69746;45.596;10.154;2023-07-09T11:58:55;99983.94;;;27.49;46.73
80410;BME280;69746;45.596;10.154;2023-07-09T12:01:43;99981.59;;;27.51;46.63
80410;BME280;69746;45.596;10.154;2023-07-09T12:04:19;99977.97;;;27.51;46.76
80410;BME280;69746;45.596;10.154;2023-07-09T12:06:47;99963.81;;;27.47;46.92
80410;BME280;69746;45.596;10.154;2023-07-09T12:09:17;99973.19;;;27.51;46.91
80410;BME280;69746;45.596;10.154;2023-07-09T12:11:46;99977.63;;;27.52;46.98
80410;BME280;69746;45.596;10.154;2023-07-09T12:14:17;99971.19;;;27.52;46.71
80410;BME280;69746;45.596;10.154;2023-07-09T12:16:49;99972.84;;;27.53;46.81
80410;BME280;69746;45.596;10.154;2023-07-09T12:19:18;99972.03;;;27.52;46.82
80410;BME280;69746;45.596;10.154;2023-07-09T12:21:48;99969.22;;;27.52;46.68
80410;BME280;69746;45.596;10.154;2023-07-09T12:24:21;99959.66;;;27.53;46.83
80410;BME280;69746;45.596;10.154;2023-07-09T12:26:53;99966.06;;;27.54;46.81
80410;BME280;69746;45.596;10.154;2023-07-09T12:29:23;99955.69;;;27.54;46.87
80410;BME280;69746;45.596;10.154;2023-07-09T12:31:49;99952.41;;;27.52;46.68
80410;BME280;69746;45.596;10.154;2023-07-09T12:34:16;99954.88;;;27.54;46.87
80410;BME280;69746;45.596;10.154;2023-07-09T12:36:49;99963.75;;;27.56;46.67
80410;BME280;69746;45.596;10.154;2023-07-09T12:39:24;99952.41;;;27.52;46.91
80410;BME280;69746;45.596;10.154;2023-07-09T12:41:54;99960.13;;;27.55;46.72
80410;BME280;69746;45.596;10.154;2023-07-09T12:44:23;99948.91;;;27.55;46.92
80410;BME280;69746;45.596;10.154;2023-07-09T12:46:52;99950.53;;;27.56;46.75
80410;BME280;69746;45.596;10.154;2023-07-09T12:49:26;99944.13;;;27.56;46.82
80410;BME280;69746;45.596;10.154;2023-07-09T12:51:58;99947.75;;;27.56;47.02
80410;BME280;69746;45.596;10.154;2023-07-09T12:54:30;99947.75;;;27.56;46.64
80410;BME280;69746;45.596;10.154;2023-07-09T12:56:58;99933.59;;;27.53;46.89
80410;BME280;69746;45.596;10.154;2023-07-09T12:59:27;99932.56;;;27.57;46.78
80410;BME280;69746;45.596;10.154;2023-07-09T13:04:32;99932.56;;;27.57;46.88
80410;BME280;69746;45.596;10.154;2023-07-09T13:07:02;99930.59;;;27.58;46.83
80410;BME280;69746;45.596;10.154;2023-07-09T13:09:28;99928.59;;;27.58;46.75
80410;BME280;69746;45.596;10.154;2023-07-09T13:11:54;99933.38;;;27.58;46.68
80410;BME280;69746;45.596;10.154;2023-07-09T13:14:27;99927.78;;;27.58;46.54
80410;BME280;69746;45.596;10.154;2023-07-09T13:17:07;99925.78;;;27.58;46.89
80410;BME280;69746;45.596;10.154;2023-07-09T13:19:40;99919.38;;;27.58;46.58
80410;BME280;69746;45.596;10.154;2023-07-09T13:22:10;99925.78;;;27.58;46.70
80410;BME280;69746;45.596;10.154;2023-07-09T13:24:38;99915.41;;;27.59;46.90
80410;BME280;69746;45.596;10.154;2023-07-09T13:27:12;99914.22;;;27.60;46.69